createdAt,value
2022-08-29T00:00:18.834Z,99867.28
2022-08-29T00:04:22.235Z,99878.00
2022-08-29T00:08:25.773Z,99870.88
2022-08-29T00:12:30.170Z,99872.66
2022-08-29T00:16:33.409Z,99868.25
2022-08-29T00:20:37.872Z,99860.44
2022-08-29T00:24:41.004Z,99860.44
2022-08-29T00:28:45.579Z,99860.44
2022-08-29T00:32:49.300Z,99861.34
2022-08-29T00:36:53.326Z,99865.91
2022-08-29T00:40:58.596Z,99873.00
2022-08-29T00:45:03.283Z,99865.91
2022-08-29T00:49:11.003Z,99865.91
2022-08-29T00:53:17.439Z,99878.38
2022-08-29T00:57:22.525Z,99866.72
2022-08-29T01:01:27.111Z,99873.94
2022-08-29T01:05:30.661Z,99870.44
2022-08-29T01:09:36.034Z,99868.00
2022-08-29T01:13:44.049Z,99868.00
2022-08-29T01:17:50.056Z,99870.72
2022-08-29T01:22:04.684Z,99861.88
2022-08-29T01:26:12.003Z,99861.03
2022-08-29T01:30:16.331Z,99860.16
2022-08-29T01:34:21.152Z,99861.03
2022-08-29T01:38:28.667Z,99862.91
2022-08-29T01:42:36.504Z,99860.22
2022-08-29T01:46:40.705Z,99861.19
2022-08-29T01:50:43.782Z,99870.22
2022-08-29T01:54:47.347Z,99863.13
2022-08-29T01:58:53.653Z,99881.03
2022-08-29T02:03:00.377Z,99884.53
2022-08-29T02:07:03.745Z,99875.69
2022-08-29T02:11:10.105Z,99879.28
2022-08-29T02:15:14.795Z,99884.63
2022-08-29T02:19:18.355Z,99879.28
2022-08-29T02:23:30.458Z,99892.59
2022-08-29T02:27:34.479Z,99895.22
2022-08-29T02:31:40.050Z,99900.69
2022-08-29T02:35:44.084Z,99907.78
2022-08-29T02:39:47.296Z,99905.19
2022-08-29T02:43:50.470Z,99900.69
2022-08-29T02:47:54.928Z,99907.84
2022-08-29T02:51:58.599Z,99892.84
2022-08-29T02:56:02.232Z,99893.81
2022-08-29T03:00:08.277Z,99902.66
2022-08-29T03:04:12.925Z,99900.13
2022-08-29T03:08:16.512Z,99903.59
2022-08-29T03:12:19.765Z,99909.78
2022-08-29T03:16:23.022Z,99911.53
2022-08-29T03:20:27.521Z,99906.19
2022-08-29T03:24:30.720Z,99912.41
2022-08-29T03:28:33.783Z,99909.66
2022-08-29T03:32:36.825Z,99920.38
2022-08-29T03:36:41.321Z,99917.81
2022-08-29T03:40:44.620Z,99920.47
2022-08-29T03:44:47.906Z,99922.38
2022-08-29T03:48:51.081Z,99935.72
2022-08-29T03:52:55.732Z,99929.41
2022-08-29T03:56:58.784Z,99925.81
2022-08-29T04:01:02.723Z,99932.00
2022-08-29T04:05:09.987Z,99933.84
2022-08-29T04:09:14.581Z,99945.38
2022-08-29T04:13:17.868Z,99943.56
2022-08-29T04:17:21.165Z,99949.00
2022-08-29T04:21:25.868Z,99957.84
2022-08-29T04:25:37.108Z,99958.66
2022-08-29T04:29:40.782Z,99952.38
2022-08-29T04:33:43.888Z,99962.13
2022-08-29T04:37:47.149Z,99954.22
2022-08-29T04:41:51.816Z,99962.22
2022-08-29T04:45:55.876Z,99964.91
2022-08-29T04:49:59.022Z,99972.94
2022-08-29T04:54:02.144Z,99977.38
2022-08-29T04:58:06.861Z,99989.84
2022-08-29T05:02:13.612Z,99988.09
2022-08-29T05:06:18.487Z,99984.41
2022-08-29T05:10:26.372Z,99997.75
2022-08-29T05:14:31.137Z,99995.19
2022-08-29T05:18:34.388Z,99996.91
2022-08-29T05:22:39.326Z,100001.31
2022-08-29T05:26:45.200Z,99998.75
2022-08-29T05:30:49.850Z,99996.91
2022-08-29T05:34:52.878Z,99995.19
2022-08-29T05:38:56.153Z,100002.28
2022-08-29T05:42:59.201Z,99996.16
2022-08-29T05:47:04.828Z,100003.28
2022-08-29T05:51:08.374Z,100004.13
2022-08-29T05:55:12.156Z,99999.69
2022-08-29T05:59:17.425Z,100006.00
2022-08-29T06:03:21.897Z,100005.00
2022-08-29T06:07:25.225Z,100012.00
2022-08-29T06:11:31.190Z,100007.41
2022-08-29T06:15:34.288Z,100007.41
2022-08-29T06:19:39.643Z,100003.75
2022-08-29T06:23:44.836Z,100012.63
2022-08-29T06:27:47.934Z,100031.56
2022-08-29T06:31:51.500Z,100031.47
2022-08-29T06:36:05.261Z,100039.41
2022-08-29T06:40:11.109Z,100042.16
2022-08-29T06:44:14.509Z,100044.75
2022-08-29T06:48:17.601Z,100044.66
2022-08-29T06:52:22.195Z,100043.75
2022-08-29T06:56:25.327Z,100050.81
2022-08-29T07:00:29.863Z,100045.38
2022-08-29T07:04:33.006Z,100053.09
2022-08-29T07:08:43.708Z,100055.56
2022-08-29T07:12:58.555Z,100059.81
2022-08-29T07:17:01.662Z,100055.91
2022-08-29T07:21:07.983Z,100063.34
2022-08-29T07:25:12.842Z,100062.38
2022-08-29T07:29:19.272Z,100064.19
2022-08-29T07:33:22.592Z,100053.00
2022-08-29T07:37:25.964Z,100056.00
2022-08-29T07:41:30.714Z,100050.88
2022-08-29T07:45:33.871Z,100047.53
2022-08-29T07:49:41.734Z,100052.19
2022-08-29T07:53:46.654Z,100061.69
2022-08-29T07:57:53.272Z,100067.06
2022-08-29T08:01:56.642Z,100069.56
2022-08-29T08:06:00.724Z,100055.19
2022-08-29T08:10:10.846Z,100068.47
2022-08-29T08:14:15.306Z,100071.22
2022-08-29T08:18:18.912Z,100080.16
2022-08-29T08:22:22.061Z,100067.28
2022-08-29T08:26:25.811Z,100067.34
2022-08-29T08:30:34.991Z,100067.38
2022-08-29T08:34:38.945Z,100066.41
2022-08-29T08:38:42.407Z,100068.63
2022-08-29T08:42:46.804Z,100070.09
2022-08-29T08:46:53.848Z,100075.75
2022-08-29T08:51:04.908Z,100083.09
2022-08-29T08:55:16.116Z,100074.41
2022-08-29T08:59:25.725Z,100076.16
2022-08-29T09:04:04.574Z,100073.63
2022-08-29T09:08:19.452Z,100073.66
2022-08-29T09:12:36.368Z,100078.72
2022-08-29T09:16:44.431Z,100073.75
2022-08-29T09:20:49.144Z,100082.47
2022-08-29T09:24:56.490Z,100089.63
2022-08-29T09:29:00.060Z,100075.50
2022-08-29T09:33:07.760Z,100060.84
2022-08-29T09:37:24.318Z,100069.72
2022-08-29T09:41:30.764Z,100073.56
2022-08-29T09:45:34.338Z,100065.31
2022-08-29T09:49:39.988Z,100066.72
2022-08-29T09:53:44.875Z,100067.44
2022-08-29T09:57:54.822Z,100069.72
2022-08-29T10:02:23.715Z,100058.25
2022-08-29T10:06:32.160Z,100070.91
2022-08-29T10:10:37.949Z,100061.66
2022-08-29T10:14:50.586Z,100054.97
2022-08-29T10:18:58.847Z,100057.19
2022-08-29T10:23:07.826Z,100062.44
2022-08-29T10:27:24.965Z,100059.09
2022-08-29T10:31:38.033Z,100050.28
2022-08-29T10:35:54.388Z,100051.84
2022-08-29T10:40:06.681Z,100054.66
2022-08-29T10:44:25.146Z,100046.56
2022-08-29T10:48:31.468Z,100056.03
2022-08-29T10:52:39.751Z,100051.00
2022-08-29T10:56:47.460Z,100046.97
2022-08-29T11:00:58.470Z,100032.38
2022-08-29T11:05:06.432Z,100044.09
2022-08-29T11:09:14.679Z,100030.97
2022-08-29T11:13:23.343Z,100030.28
2022-08-29T11:17:33.434Z,100026.50
2022-08-29T11:21:42.372Z,100018.81
2022-08-29T11:25:46.285Z,100018.81
2022-08-29T11:29:58.959Z,100020.78
2022-08-29T11:34:22.681Z,100016.31
2022-08-29T11:38:59.471Z,100013.13
2022-08-29T11:43:13.663Z,100013.00
2022-08-29T11:47:41.070Z,100016.81
2022-08-29T11:51:46.135Z,100010.44
2022-08-29T11:56:27.738Z,100003.44
2022-08-29T12:00:43.084Z,99999.78
2022-08-29T12:04:56.920Z,99999.69
2022-08-29T12:09:13.340Z,99996.41
2022-08-29T12:13:58.304Z,99994.88
2022-08-29T12:18:23.789Z,99995.53
2022-08-29T12:22:48.140Z,99992.63
2022-08-29T12:26:51.508Z,99979.59
2022-08-29T12:31:10.345Z,99971.25
2022-08-29T12:35:37.110Z,99970.50
2022-08-29T12:40:05.251Z,99968.38
2022-08-29T12:44:13.869Z,99970.22
2022-08-29T12:48:22.629Z,99954.19
2022-08-29T12:52:30.500Z,99958.06
2022-08-29T12:56:34.710Z,99946.81
2022-08-29T13:00:37.996Z,99950.75
2022-08-29T13:04:44.448Z,99952.50
2022-08-29T13:08:50.121Z,99944.59
2022-08-29T13:12:56.731Z,99950.75
2022-08-29T13:16:59.874Z,99932.91
2022-08-29T13:21:08.135Z,99936.28
2022-08-29T13:25:16.676Z,99928.38
2022-08-29T13:29:29.189Z,99931.50
2022-08-29T13:33:35.088Z,99928.00
2022-08-29T13:37:41.281Z,99927.13
2022-08-29T13:41:48.924Z,99925.84
2022-08-29T13:46:03.578Z,99920.44
2022-08-29T13:50:09.850Z,99911.47
2022-08-29T13:54:13.125Z,99912.66
2022-08-29T13:58:22.576Z,99904.25
2022-08-29T14:03:08.222Z,99901.09
2022-08-29T14:07:18.109Z,99897.44
2022-08-29T14:11:21.931Z,99888.44
2022-08-29T14:15:26.574Z,99887.47
2022-08-29T14:19:31.204Z,99880.72
2022-08-29T14:23:34.721Z,99878.59
2022-08-29T14:27:38.396Z,99883.53
2022-08-29T14:31:43.285Z,99875.31
2022-08-29T14:35:46.481Z,99876.75
2022-08-29T14:39:50.416Z,99865.47
2022-08-29T14:43:55.232Z,99877.63
2022-08-29T14:48:00.333Z,99884.78
2022-08-29T14:52:04.058Z,99877.63
2022-08-29T14:56:07.681Z,99883.94
2022-08-29T15:00:14.177Z,99880.25
2022-08-29T15:04:18.692Z,99875.25
2022-08-29T15:08:25.241Z,99871.41
2022-08-29T15:12:29.102Z,99869.00
2022-08-29T15:16:33.058Z,99863.84
2022-08-29T15:20:40.147Z,99863.94
2022-08-29T15:24:46.010Z,99869.56
2022-08-29T15:28:49.277Z,99869.84
2022-08-29T15:32:53.783Z,99866.47
2022-08-29T15:37:00.128Z,99869.53
2022-08-29T15:41:03.722Z,99873.41
2022-08-29T15:45:10.337Z,99878.03
2022-08-29T15:49:15.071Z,99872.06
2022-08-29T15:53:23.246Z,99874.84
2022-08-29T15:57:26.858Z,99865.00
2022-08-29T16:01:33.078Z,99870.72
2022-08-29T16:05:38.396Z,99876.28
2022-08-29T16:09:43.075Z,99871.94
2022-08-29T16:13:46.466Z,99873.00
2022-08-29T16:17:49.985Z,99871.25
2022-08-29T16:21:53.322Z,99874.94
2022-08-29T16:25:58.369Z,99883.91
2022-08-29T16:30:02.051Z,99882.06
2022-08-29T16:34:05.689Z,99886.59
2022-08-29T16:38:09.211Z,99887.69
2022-08-29T16:42:14.281Z,99879.00
2022-08-29T16:46:18.477Z,99886.59
2022-08-29T16:50:22.080Z,99883.16
2022-08-29T16:54:25.350Z,99884.41
2022-08-29T16:58:47.414Z,99884.50
2022-08-29T17:02:53.957Z,99884.88
2022-08-29T17:06:57.615Z,99890.66
2022-08-29T17:10:59.944Z,99892.63
2022-08-29T17:15:04.501Z,99888.31
2022-08-29T17:19:08.957Z,99891.94
2022-08-29T17:23:13.517Z,99887.72
2022-08-29T17:27:21.258Z,99891.56
2022-08-29T17:31:33.494Z,99886.50
2022-08-29T17:35:42.553Z,99885.91
2022-08-29T17:39:48.540Z,99884.38
2022-08-29T17:43:52.809Z,99885.59
2022-08-29T17:47:57.679Z,99892.03
2022-08-29T17:52:00.997Z,99891.34
2022-08-29T17:56:13.464Z,99895.22
2022-08-29T18:00:17.554Z,99891.16
2022-08-29T18:04:23.190Z,99904.03
2022-08-29T18:08:26.554Z,99904.38
2022-08-29T18:12:31.194Z,99907.31
2022-08-29T18:16:38.119Z,99923.69
2022-08-29T18:20:43.212Z,99925.69
2022-08-29T18:24:48.147Z,99917.94
2022-08-29T18:28:51.970Z,99936.19
2022-08-29T18:32:55.788Z,99933.81
2022-08-29T18:37:00.778Z,99939.53
2022-08-29T18:41:04.276Z,99945.38
2022-08-29T18:45:09.201Z,99945.81
2022-08-29T18:49:12.497Z,99949.88
2022-08-29T18:53:20.369Z,99963.69
2022-08-29T18:57:23.430Z,99970.31
2022-08-29T19:01:28.958Z,99977.88
2022-08-29T19:05:35.009Z,99978.25
2022-08-29T19:09:39.796Z,99970.50
2022-08-29T19:13:43.397Z,99980.63
2022-08-29T19:17:46.864Z,99983.63
2022-08-29T19:21:52.458Z,99987.44
2022-08-29T19:25:57.652Z,99981.41
2022-08-29T19:30:05.431Z,99980.75
2022-08-29T19:34:08.952Z,99993.63
2022-08-29T19:38:12.483Z,99989.44
2022-08-29T19:42:17.132Z,99990.50
2022-08-29T19:46:23.911Z,99985.59
2022-08-29T19:50:27.851Z,99993.16
2022-08-29T19:54:30.931Z,99993.63
2022-08-29T19:58:35.633Z,99983.00
2022-08-29T20:02:39.038Z,99983.25
2022-08-29T20:06:43.977Z,99989.63
2022-08-29T20:10:49.629Z,99996.13
2022-08-29T20:14:54.917Z,100001.84
2022-08-29T20:18:58.276Z,100005.69
2022-08-29T20:23:01.557Z,100002.31
2022-08-29T20:27:05.497Z,100001.59
2022-08-29T20:31:10.691Z,99999.09
2022-08-29T20:35:34.285Z,100010.03
2022-08-29T20:39:39.041Z,100009.25
2022-08-29T20:43:42.483Z,100010.44
2022-08-29T20:47:46.967Z,100009.75
2022-08-29T20:51:51.278Z,100015.38
2022-08-29T20:55:54.576Z,100009.41
2022-08-29T21:00:02.141Z,100016.66
2022-08-29T21:04:24.977Z,100009.59
2022-08-29T21:08:28.251Z,100012.69
2022-08-29T21:12:31.548Z,100014.78
2022-08-29T21:16:36.485Z,100015.03
2022-08-29T21:20:53.462Z,100025.09
2022-08-29T21:24:57.595Z,100017.38
2022-08-29T21:29:00.827Z,100024.00
2022-08-29T21:33:04.363Z,100035.00
2022-08-29T21:37:08.867Z,100031.63
2022-08-29T21:41:13.275Z,100034.59
2022-08-29T21:45:16.468Z,100036.66
2022-08-29T21:49:21.813Z,100032.41
2022-08-29T21:53:26.252Z,100029.91
2022-08-29T21:57:46.776Z,100037.22
2022-08-29T22:01:52.678Z,100044.53
2022-08-29T22:05:58.243Z,100048.28
2022-08-29T22:10:03.660Z,100042.22
2022-08-29T22:14:07.773Z,100050.50
2022-08-29T22:18:12.370Z,100049.03
2022-08-29T22:22:15.674Z,100043.84
2022-08-29T22:26:20.480Z,100040.47
2022-08-29T22:30:23.794Z,100047.75
2022-08-29T22:34:35.616Z,100043.47
2022-08-29T22:38:38.852Z,100033.81
2022-08-29T22:42:43.834Z,100040.19
2022-08-29T22:46:47.137Z,100038.59
2022-08-29T22:50:58.265Z,100041.44
2022-08-29T22:55:01.731Z,100042.44
2022-08-29T22:59:07.366Z,100046.16
2022-08-29T23:03:11.125Z,100046.28
2022-08-29T23:07:14.239Z,100044.63
2022-08-29T23:11:17.382Z,100046.63
2022-08-29T23:15:22.070Z,100052.97
2022-08-29T23:19:25.135Z,100051.25
2022-08-29T23:23:28.294Z,100056.75
2022-08-29T23:27:33.890Z,100054.25
2022-08-29T23:31:38.644Z,100040.09
2022-08-29T23:35:41.798Z,100051.81
2022-08-29T23:39:44.938Z,100042.97
2022-08-29T23:43:47.969Z,100047.53
2022-08-29T23:47:52.594Z,100043.06
2022-08-29T23:51:55.600Z,100045.88
2022-08-29T23:55:58.970Z,100037.03
